MRLBMPDA

Guest
Details From MRLB - Daniel Oduber Quiros Intl
To MPDA - ENRIQUE MALEK INTL
Flight Number -
Tags generated
Created
Modified
Stats Distance 229 nm / 423 km
Max Altitude 19,500 ft / 5,944 m
Waypoints 6
Social Downloads 0
Likes 0
Share VATSIM

Download

Looking for another format? Having issues loading an existing format? Contact us
Advertisement - Login to hide

Notes

Basic altitude profile: - Ascent Rate: 2500ft/min - Ascent Speed: 250kts - Cruise Altitude: 35000ft - Cruise Speed: 420kts - Descent Rate: 1500ft/min - Descent Speed: 250kts Options: - Use NATs: yes - Use PACOTS: yes - Use low airways: yes - Use high airways: yes

Route

MRLB LIB R773 COT A502 POXON MPDA

ID Type Via Altitude Latitude Longitude Leg Dist Tot Dist Heading (true) Name
O MRLB APT - 0 ft / 0 m 10.59329˚ -85.54441˚ - 0 nm - Daniel Oduber Quiros Intl
LIB VOR - 0 ft / 0 m 10.59419˚ -85.54636˚ 0 nm 0 nm 295° / 295° LIBERIA VOR-DME
PAR NDB R773 (AWY-LO) 19,500 ft / 5,944 m 9.51750˚ -84.31694˚ 97 nm 97 nm 132° / 132° PARRITA NDB
COT NDB R773 (AWY-LO) 10,000 ft / 3,048 m 8.60858˚ -82.97153˚ 96 nm 194 nm 124° / 124° COTO 47 NDB
POXON FIX A502 (AWY-LO) 10,000 ft / 3,048 m 8.55167˚ -82.83500˚ 8 nm 202 nm 113° / 113° -
O MPDA APT - 0 ft / 0 m 8.39100˚ -82.43498˚ 25 nm 228 nm 112° / 112° ENRIQUE MALEK INTL

Altitude Profile

Advertisement - Login to hide

Weather


0- 5 10 15 20 25 30 35+ Temperature / ° C

Clouds and Precipitation
Forecast for 2017-12-16 12:00 UTC. Updated an hour ago

Ground ~20,000 ft ~40,000 ft Winds

MRLB

Details ICAO MRLB (LIR)
Name Daniel Oduber Quiros Intl
Region Costa Rica
Timezone America/Costa_Rica (UTC-6.0)
Stats Elevation 270 ft / 82 m (AMSL)
Location 10.593289° -85.544410°
Runways 1
Magnetic Variation 1.041° W

METAR

MRLB 161200Z 14005KT CAVOK 24/20 A2983 NOSIG

Decode

TAF

MRLB 161100Z 1612/1712 08015KT 9999 FEW045 TX32/1619Z TN22/1711Z TEMPO 1612/1614 VRB02KT

Decode

Departure Runways

ID Width Length Bearing (true) Bearing (mag) Surface Threshold Offset Overrun Length
07 148 ft / 45 m 9,068 ft / 2,764 m 70.05° 71.09° Asphalt 0 ft / 0 m 0 ft / 0 m
25 148 ft / 45 m 9,068 ft / 2,764 m 250.05° 251.09° Asphalt 0 ft / 0 m 0 ft / 0 m

MPDA

Details ICAO MPDA (DAV)
Name ENRIQUE MALEK INTL
Region Panama
Timezone America/Panama (UTC-5.0)
Stats Elevation 89 ft / 27 m (AMSL)
Location 8.391001° -82.434978°
Runways 1
Magnetic Variation 2.505° W

METAR

MPDA 161200Z 03003KT 360V060 CAVOK 21/20 Q1010

Decode

TAF

Not found

Destination Runways

ID Width Length Bearing (true) Bearing (mag) Surface Threshold Offset Overrun Length
04 148 ft / 45 m 6,923 ft / 2,110 m 37.70° 40.21° Asphalt 0 ft / 0 m 197 ft / 60 m
22 148 ft / 45 m 6,923 ft / 2,110 m 217.71° 220.22° Asphalt 0 ft / 0 m 0 ft / 0 m